sensor_id;sensor_type;location;lat;lon;timestamp;P1;durP1;ratioP1;P2;durP2;ratioP2
1376;SDS011;682;52.502;13.488;2022-11-15T00:02:01;46.55;;;34.50;;
1376;SDS011;682;52.502;13.488;2022-11-15T00:04:34;49.95;;;33.90;;
1376;SDS011;682;52.502;13.488;2022-11-15T00:07:03;47.22;;;33.67;;
1376;SDS011;682;52.502;13.488;2022-11-15T00:09:34;47.58;;;34.72;;
1376;SDS011;682;52.502;13.488;2022-11-15T00:12:07;48.88;;;34.65;;
1376;SDS011;682;52.502;13.488;2022-11-15T00:14:35;47.35;;;34.70;;
1376;SDS011;682;52.502;13.488;2022-11-15T00:17:05;49.47;;;35.30;;
1376;SDS011;682;52.502;13.488;2022-11-15T00:19:33;46.47;;;33.17;;
1376;SDS011;682;52.502;13.488;2022-11-15T00:22:01;48.55;;;34.53;;
1376;SDS011;682;52.502;13.488;2022-11-15T00:24:32;47.67;;;33.70;;
1376;SDS011;682;52.502;13.488;2022-11-15T00:26:59;48.10;;;33.15;;
1376;SDS011;682;52.502;13.488;2022-11-15T00:29:32;49.58;;;35.47;;
1376;SDS011;682;52.502;13.488;2022-11-15T00:32:00;52.80;;;34.20;;
1376;SDS011;682;52.502;13.488;2022-11-15T00:34:34;53.10;;;35.00;;
1376;SDS011;682;52.502;13.488;2022-11-15T00:37:01;46.03;;;32.78;;
1376;SDS011;682;52.502;13.488;2022-11-15T00:39:32;50.05;;;34.45;;
1376;SDS011;682;52.502;13.488;2022-11-15T00:41:59;46.97;;;33.25;;
1376;SDS011;682;52.502;13.488;2022-11-15T00:44:27;47.35;;;34.50;;
1376;SDS011;682;52.502;13.488;2022-11-15T00:46:54;52.72;;;36.63;;
1376;SDS011;682;52.502;13.488;2022-11-15T00:49:27;52.40;;;33.63;;
1376;SDS011;682;52.502;13.488;2022-11-15T00:51:54;55.60;;;35.25;;
1376;SDS011;682;52.502;13.488;2022-11-15T00:54:21;49.47;;;34.03;;
1376;SDS011;682;52.502;13.488;2022-11-15T00:56:57;47.50;;;33.30;;
1376;SDS011;682;52.502;13.488;2022-11-15T00:59:27;48.65;;;32.67;;
1376;SDS011;682;52.502;13.488;2022-11-15T01:01:54;48.10;;;34.88;;
1376;SDS011;682;52.502;13.488;2022-11-15T01:04:27;50.17;;;34.55;;
1376;SDS011;682;52.502;13.488;2022-11-15T01:06:54;51.70;;;33.63;;
1376;SDS011;682;52.502;13.488;2022-11-15T01:09:21;49.80;;;33.80;;
1376;SDS011;682;52.502;13.488;2022-11-15T01:11:53;52.47;;;35.15;;
1376;SDS011;682;52.502;13.488;2022-11-15T01:14:20;52.75;;;35.00;;
1376;SDS011;682;52.502;13.488;2022-11-15T01:16:52;51.10;;;34.63;;
1376;SDS011;682;52.502;13.488;2022-11-15T01:19:19;53.63;;;35.92;;
1376;SDS011;682;52.502;13.488;2022-11-15T01:22:00;54.40;;;35.47;;
1376;SDS011;682;52.502;13.488;2022-11-15T01:24:27;47.33;;;34.70;;
1376;SDS011;682;52.502;13.488;2022-11-15T01:26:55;56.55;;;36.75;;
1376;SDS011;682;52.502;13.488;2022-11-15T01:29:22;50.35;;;35.25;;
1376;SDS011;682;52.502;13.488;2022-11-15T01:31:53;47.80;;;35.35;;
1376;SDS011;682;52.502;13.488;2022-11-15T01:34:20;50.22;;;34.75;;
1376;SDS011;682;52.502;13.488;2022-11-15T01:36:53;49.50;;;34.22;;
1376;SDS011;682;52.502;13.488;2022-11-15T01:39:22;51.85;;;33.85;;
1376;SDS011;682;52.502;13.488;2022-11-15T01:41:53;52.83;;;36.15;;
1376;SDS011;682;52.502;13.488;2022-11-15T01:47:15;45.83;;;32.65;;
1376;SDS011;682;52.502;13.488;2022-11-15T01:49:50;47.67;;;32.95;;
1376;SDS011;682;52.502;13.488;2022-11-15T01:52:22;51.40;;;34.33;;
1376;SDS011;682;52.502;13.488;2022-11-15T01:54:58;50.90;;;35.17;;
1376;SDS011;682;52.502;13.488;2022-11-15T01:57:37;50.33;;;34.67;;
1376;SDS011;682;52.502;13.488;2022-11-15T02:00:08;52.88;;;34.35;;
1376;SDS011;682;52.502;13.488;2022-11-15T02:02:36;47.97;;;34.97;;
1376;SDS011;682;52.502;13.488;2022-11-15T02:05:07;50.95;;;33.28;;
1376;SDS011;682;52.502;13.488;2022-11-15T02:07:36;48.50;;;35.97;;
1376;SDS011;682;52.502;13.488;2022-11-15T02:10:11;49.35;;;33.10;;
1376;SDS011;682;52.502;13.488;2022-11-15T02:12:40;51.42;;;34.78;;
1376;SDS011;682;52.502;13.488;2022-11-15T02:15:17;50.20;;;36.33;;
1376;SDS011;682;52.502;13.488;2022-11-15T02:17:55;48.85;;;35.13;;
1376;SDS011;682;52.502;13.488;2022-11-15T02:20:31;51.58;;;34.85;;
1376;SDS011;682;52.502;13.488;2022-11-15T02:26:37;53.15;;;33.15;;
1376;SDS011;682;52.502;13.488;2022-11-15T02:29:41;46.65;;;32.70;;
1376;SDS011;682;52.502;13.488;2022-11-15T02:32:30;54.20;;;35.85;;
1376;SDS011;682;52.502;13.488;2022-11-15T02:35:11;48.45;;;35.72;;
1376;SDS011;682;52.502;13.488;2022-11-15T02:37:50;52.00;;;34.20;;
1376;SDS011;682;52.502;13.488;2022-11-15T02:40:26;51.85;;;33.92;;
1376;SDS011;682;52.502;13.488;2022-11-15T02:43:08;52.40;;;34.63;;
1376;SDS011;682;52.502;13.488;2022-11-15T02:45:52;51.17;;;34.22;;
1376;SDS011;682;52.502;13.488;2022-11-15T02:48:30;44.88;;;31.40;;
1376;SDS011;682;52.502;13.488;2022-11-15T02:50:57;49.20;;;34.60;;
1376;SDS011;682;52.502;13.488;2022-11-15T02:53:30;49.45;;;32.80;;
1376;SDS011;682;52.502;13.488;2022-11-15T02:55:57;50.05;;;34.15;;
1376;SDS011;682;52.502;13.488;2022-11-15T02:58:33;56.10;;;35.35;;
1376;SDS011;682;52.502;13.488;2022-11-15T03:01:31;51.30;;;35.40;;
1376;SDS011;682;52.502;13.488;2022-11-15T03:04:19;56.65;;;36.65;;
1376;SDS011;682;52.502;13.488;2022-11-15T03:07:03;50.13;;;35.63;;
1376;SDS011;682;52.502;13.488;2022-11-15T03:09:49;56.50;;;34.83;;
1376;SDS011;682;52.502;13.488;2022-11-15T03:12:25;51.00;;;34.67;;
1376;SDS011;682;52.502;13.488;2022-11-15T03:15:01;51.40;;;33.95;;
1376;SDS011;682;52.502;13.488;2022-11-15T03:17:38;51.88;;;34.78;;
1376;SDS011;682;52.502;13.488;2022-11-15T03:20:16;51.38;;;34.50;;
1376;SDS011;682;52.502;13.488;2022-11-15T03:22:47;54.33;;;34.47;;
1376;SDS011;682;52.502;13.488;2022-11-15T03:25:17;51.85;;;34.97;;
1376;SDS011;682;52.502;13.488;2022-11-15T03:27:48;48.28;;;33.85;;
1376;SDS011;682;52.502;13.488;2022-11-15T03:30:18;55.13;;;34.85;;
1376;SDS011;682;52.502;13.488;2022-11-15T03:32:46;53.60;;;35.15;;
1376;SDS011;682;52.502;13.488;2022-11-15T03:35:19;52.65;;;36.45;;
1376;SDS011;682;52.502;13.488;2022-11-15T03:37:50;54.05;;;33.67;;
1376;SDS011;682;52.502;13.488;2022-11-15T03:40:24;52.13;;;36.33;;
1376;SDS011;682;52.502;13.488;2022-11-15T03:42:58;51.45;;;34.20;;
1376;SDS011;682;52.502;13.488;2022-11-15T03:45:31;61.50;;;38.75;;
1376;SDS011;682;52.502;13.488;2022-11-15T03:48:02;59.20;;;38.08;;
1376;SDS011;682;52.502;13.488;2022-11-15T03:50:38;55.92;;;35.28;;
1376;SDS011;682;52.502;13.488;2022-11-15T03:53:06;52.22;;;36.03;;
1376;SDS011;682;52.502;13.488;2022-11-15T03:55:33;55.92;;;36.58;;
1376;SDS011;682;52.502;13.488;2022-11-15T03:58:00;56.70;;;36.15;;
1376;SDS011;682;52.502;13.488;2022-11-15T04:00:28;53.28;;;35.33;;
1376;SDS011;682;52.502;13.488;2022-11-15T04:02:56;56.70;;;35.85;;
1376;SDS011;682;52.502;13.488;2022-11-15T04:05:24;57.40;;;35.85;;
1376;SDS011;682;52.502;13.488;2022-11-15T04:07:53;55.85;;;35.95;;
1376;SDS011;682;52.502;13.488;2022-11-15T04:10:20;58.65;;;38.90;;
1376;SDS011;682;52.502;13.488;2022-11-15T04:12:50;60.03;;;39.60;;
1376;SDS011;682;52.502;13.488;2022-11-15T04:15:18;57.58;;;37.60;;
1376;SDS011;682;52.502;13.488;2022-11-15T04:17:46;58.72;;;38.70;;
1376;SDS011;682;52.502;13.488;2022-11-15T04:20:18;64.18;;;39.22;;
1376;SDS011;682;52.502;13.488;2022-11-15T04:23:05;58.65;;;39.53;;
1376;SDS011;682;52.502;13.488;2022-11-15T04:25:50;55.78;;;39.85;;
1376;SDS011;682;52.502;13.488;2022-11-15T04:28:24;67.57;;;40.33;;
1376;SDS011;682;52.502;13.488;2022-11-15T04:30:51;61.53;;;39.20;;
1376;SDS011;682;52.502;13.488;2022-11-15T04:33:23;66.50;;;42.05;;
1376;SDS011;682;52.502;13.488;2022-11-15T04:35:51;64.53;;;42.42;;
1376;SDS011;682;52.502;13.488;2022-11-15T04:38:43;65.50;;;42.97;;
1376;SDS011;682;52.502;13.488;2022-11-15T04:41:10;62.35;;;41.40;;
1376;SDS011;682;52.502;13.488;2022-11-15T04:43:40;78.82;;;52.63;;
1376;SDS011;682;52.502;13.488;2022-11-15T04:46:07;59.05;;;39.58;;
1376;SDS011;682;52.502;13.488;2022-11-15T04:48:38;61.60;;;39.90;;
1376;SDS011;682;52.502;13.488;2022-11-15T04:51:12;62.08;;;38.83;;
1376;SDS011;682;52.502;13.488;2022-11-15T04:53:46;58.33;;;38.03;;
1376;SDS011;682;52.502;13.488;2022-11-15T04:56:15;63.90;;;37.78;;
1376;SDS011;682;52.502;13.488;2022-11-15T04:58:44;59.97;;;38.17;;
1376;SDS011;682;52.502;13.488;2022-11-15T05:01:12;58.00;;;38.33;;
1376;SDS011;682;52.502;13.488;2022-11-15T05:03:41;59.05;;;37.85;;
1376;SDS011;682;52.502;13.488;2022-11-15T05:06:26;56.70;;;37.03;;
1376;SDS011;682;52.502;13.488;2022-11-15T05:08:56;57.55;;;40.42;;
1376;SDS011;682;52.502;13.488;2022-11-15T05:11:24;57.53;;;37.50;;
1376;SDS011;682;52.502;13.488;2022-11-15T05:13:52;55.38;;;37.35;;
1376;SDS011;682;52.502;13.488;2022-11-15T05:16:19;58.65;;;37.88;;
1376;SDS011;682;52.502;13.488;2022-11-15T05:18:46;54.80;;;35.45;;
1376;SDS011;682;52.502;13.488;2022-11-15T05:21:16;55.83;;;38.28;;
1376;SDS011;682;52.502;13.488;2022-11-15T05:23:45;56.50;;;37.20;;
1376;SDS011;682;52.502;13.488;2022-11-15T05:26:18;55.58;;;36.80;;
1376;SDS011;682;52.502;13.488;2022-11-15T05:28:45;57.92;;;37.65;;
1376;SDS011;682;52.502;13.488;2022-11-15T05:31:17;53.08;;;35.92;;
1376;SDS011;682;52.502;13.488;2022-11-15T05:33:44;54.08;;;37.33;;
1376;SDS011;682;52.502;13.488;2022-11-15T05:36:13;55.75;;;38.05;;
1376;SDS011;682;52.502;13.488;2022-11-15T05:38:44;57.20;;;37.50;;
1376;SDS011;682;52.502;13.488;2022-11-15T05:41:14;64.82;;;39.60;;
1376;SDS011;682;52.502;13.488;2022-11-15T05:43:43;54.72;;;34.67;;
1376;SDS011;682;52.502;13.488;2022-11-15T05:46:11;54.83;;;35.33;;
1376;SDS011;682;52.502;13.488;2022-11-15T05:48:41;61.25;;;37.38;;
1376;SDS011;682;52.502;13.488;2022-11-15T05:51:12;55.85;;;36.63;;
1376;SDS011;682;52.502;13.488;2022-11-15T05:53:42;53.20;;;35.95;;
1376;SDS011;682;52.502;13.488;2022-11-15T05:56:10;58.08;;;39.10;;
1376;SDS011;682;52.502;13.488;2022-11-15T05:58:39;58.10;;;34.92;;
1376;SDS011;682;52.502;13.488;2022-11-15T06:01:07;53.03;;;35.22;;
1376;SDS011;682;52.502;13.488;2022-11-15T06:03:35;52.75;;;34.88;;
1376;SDS011;682;52.502;13.488;2022-11-15T06:06:03;50.35;;;35.50;;
1376;SDS011;682;52.502;13.488;2022-11-15T06:08:30;51.03;;;35.20;;
1376;SDS011;682;52.502;13.488;2022-11-15T06:11:02;55.17;;;36.55;;
1376;SDS011;682;52.502;13.488;2022-11-15T06:13:30;54.10;;;36.28;;
1376;SDS011;682;52.502;13.488;2022-11-15T06:15:58;63.25;;;44.20;;
1376;SDS011;682;52.502;13.488;2022-11-15T06:18:25;56.40;;;37.75;;
1376;SDS011;682;52.502;13.488;2022-11-15T06:20:58;59.55;;;39.55;;
1376;SDS011;682;52.502;13.488;2022-11-15T06:23:26;51.67;;;36.15;;
1376;SDS011;682;52.502;13.488;2022-11-15T06:25:58;60.97;;;39.35;;
1376;SDS011;682;52.502;13.488;2022-11-15T06:28:29;59.30;;;38.90;;
1376;SDS011;682;52.502;13.488;2022-11-15T06:31:01;54.97;;;37.55;;
1376;SDS011;682;52.502;13.488;2022-11-15T06:33:35;54.67;;;36.63;;
1376;SDS011;682;52.502;13.488;2022-11-15T06:36:09;62.60;;;41.90;;
1376;SDS011;682;52.502;13.488;2022-11-15T06:38:41;60.47;;;39.65;;
1376;SDS011;682;52.502;13.488;2022-11-15T06:41:18;57.22;;;38.78;;
1376;SDS011;682;52.502;13.488;2022-11-15T06:43:56;55.03;;;35.92;;
1376;SDS011;682;52.502;13.488;2022-11-15T06:46:39;71.43;;;48.58;;
1376;SDS011;682;52.502;13.488;2022-11-15T06:49:11;55.35;;;36.25;;
1376;SDS011;682;52.502;13.488;2022-11-15T06:51:39;53.65;;;35.47;;
1376;SDS011;682;52.502;13.488;2022-11-15T06:54:11;55.40;;;35.42;;
1376;SDS011;682;52.502;13.488;2022-11-15T06:56:38;54.45;;;36.40;;
1376;SDS011;682;52.502;13.488;2022-11-15T06:59:10;53.63;;;35.40;;
1376;SDS011;682;52.502;13.488;2022-11-15T07:01:40;52.08;;;33.75;;
1376;SDS011;682;52.502;13.488;2022-11-15T07:04:08;54.05;;;34.22;;
1376;SDS011;682;52.502;13.488;2022-11-15T07:06:38;53.92;;;35.17;;
1376;SDS011;682;52.502;13.488;2022-11-15T07:09:08;48.75;;;34.35;;
1376;SDS011;682;52.502;13.488;2022-11-15T07:11:35;57.13;;;35.35;;
1376;SDS011;682;52.502;13.488;2022-11-15T07:14:02;50.58;;;34.60;;
1376;SDS011;682;52.502;13.488;2022-11-15T07:16:34;50.33;;;34.45;;
1376;SDS011;682;52.502;13.488;2022-11-15T07:19:03;53.30;;;36.80;;
1376;SDS011;682;52.502;13.488;2022-11-15T07:21:35;50.13;;;34.60;;
1376;SDS011;682;52.502;13.488;2022-11-15T07:24:09;53.17;;;34.92;;
1376;SDS011;682;52.502;13.488;2022-11-15T07:26:36;50.58;;;35.20;;
1376;SDS011;682;52.502;13.488;2022-11-15T07:29:02;53.38;;;35.92;;
1376;SDS011;682;52.502;13.488;2022-11-15T07:31:34;56.08;;;35.22;;
1376;SDS011;682;52.502;13.488;2022-11-15T07:34:01;57.83;;;36.10;;
1376;SDS011;682;52.502;13.488;2022-11-15T07:36:35;51.85;;;34.72;;
1376;SDS011;682;52.502;13.488;2022-11-15T07:39:03;52.47;;;36.22;;
1376;SDS011;682;52.502;13.488;2022-11-15T07:41:34;52.28;;;35.30;;
1376;SDS011;682;52.502;13.488;2022-11-15T07:44:01;53.75;;;37.10;;
1376;SDS011;682;52.502;13.488;2022-11-15T07:46:29;59.13;;;36.88;;
1376;SDS011;682;52.502;13.488;2022-11-15T07:48:56;48.17;;;34.50;;
1376;SDS011;682;52.502;13.488;2022-11-15T07:51:29;49.33;;;34.97;;
1376;SDS011;682;52.502;13.488;2022-11-15T07:53:56;51.63;;;35.65;;
1376;SDS011;682;52.502;13.488;2022-11-15T07:56:23;56.05;;;37.47;;
1376;SDS011;682;52.502;13.488;2022-11-15T07:58:54;56.65;;;36.28;;
1376;SDS011;682;52.502;13.488;2022-11-15T08:01:21;53.90;;;36.17;;
1376;SDS011;682;52.502;13.488;2022-11-15T08:03:54;56.10;;;34.22;;
1376;SDS011;682;52.502;13.488;2022-11-15T08:06:21;51.40;;;34.60;;
1376;SDS011;682;52.502;13.488;2022-11-15T08:08:55;50.85;;;35.55;;
1376;SDS011;682;52.502;13.488;2022-11-15T08:11:22;46.40;;;33.10;;
1376;SDS011;682;52.502;13.488;2022-11-15T08:13:58;48.25;;;32.38;;
1376;SDS011;682;52.502;13.488;2022-11-15T08:16:29;53.78;;;35.25;;
1376;SDS011;682;52.502;13.488;2022-11-15T08:18:56;49.08;;;33.78;;
1376;SDS011;682;52.502;13.488;2022-11-15T08:21:23;44.30;;;31.27;;
1376;SDS011;682;52.502;13.488;2022-11-15T08:23:56;49.42;;;33.58;;
1376;SDS011;682;52.502;13.488;2022-11-15T08:26:23;50.20;;;34.00;;
1376;SDS011;682;52.502;13.488;2022-11-15T08:28:56;45.78;;;32.55;;
1376;SDS011;682;52.502;13.488;2022-11-15T08:31:23;46.13;;;32.13;;
1376;SDS011;682;52.502;13.488;2022-11-15T08:33:55;44.58;;;30.73;;
1376;SDS011;682;52.502;13.488;2022-11-15T08:36:22;47.33;;;32.35;;
1376;SDS011;682;52.502;13.488;2022-11-15T08:38:58;46.95;;;32.47;;
1376;SDS011;682;52.502;13.488;2022-11-15T08:41:29;47.65;;;32.47;;
1376;SDS011;682;52.502;13.488;2022-11-15T08:43:59;43.05;;;29.98;;
1376;SDS011;682;52.502;13.488;2022-11-15T08:46:26;45.80;;;33.53;;
1376;SDS011;682;52.502;13.488;2022-11-15T08:48:55;52.45;;;34.20;;
1376;SDS011;682;52.502;13.488;2022-11-15T08:51:22;42.95;;;32.45;;
1376;SDS011;682;52.502;13.488;2022-11-15T08:53:53;39.13;;;30.00;;
1376;SDS011;682;52.502;13.488;2022-11-15T08:56:22;41.93;;;30.93;;
1376;SDS011;682;52.502;13.488;2022-11-15T08:58:49;46.13;;;33.03;;
1376;SDS011;682;52.502;13.488;2022-11-15T09:01:16;42.83;;;31.20;;
1376;SDS011;682;52.502;13.488;2022-11-15T09:03:50;43.17;;;30.38;;
1376;SDS011;682;52.502;13.488;2022-11-15T09:06:17;44.20;;;32.47;;
1376;SDS011;682;52.502;13.488;2022-11-15T09:08:51;44.58;;;29.90;;
1376;SDS011;682;52.502;13.488;2022-11-15T09:11:18;38.85;;;30.40;;
1376;SDS011;682;52.502;13.488;2022-11-15T09:13:51;40.65;;;29.20;;
1376;SDS011;682;52.502;13.488;2022-11-15T09:16:18;37.60;;;27.80;;
1376;SDS011;682;52.502;13.488;2022-11-15T09:18:49;42.55;;;29.70;;
1376;SDS011;682;52.502;13.488;2022-11-15T09:21:16;38.73;;;29.83;;
1376;SDS011;682;52.502;13.488;2022-11-15T09:23:43;36.47;;;27.00;;
1376;SDS011;682;52.502;13.488;2022-11-15T09:26:17;36.77;;;27.40;;
1376;SDS011;682;52.502;13.488;2022-11-15T09:28:53;35.97;;;25.93;;
1376;SDS011;682;52.502;13.488;2022-11-15T09:31:20;41.93;;;28.37;;
1376;SDS011;682;52.502;13.488;2022-11-15T09:33:48;39.87;;;27.20;;
1376;SDS011;682;52.502;13.488;2022-11-15T09:36:16;34.57;;;25.60;;
1376;SDS011;682;52.502;13.488;2022-11-15T09:38:43;32.30;;;24.93;;
1376;SDS011;682;52.502;13.488;2022-11-15T09:41:19;29.57;;;24.80;;
1376;SDS011;682;52.502;13.488;2022-11-15T09:44:13;34.20;;;25.47;;
1376;SDS011;682;52.502;13.488;2022-11-15T09:47:05;30.43;;;23.60;;
1376;SDS011;682;52.502;13.488;2022-11-15T09:49:51;28.73;;;23.33;;
1376;SDS011;682;52.502;13.488;2022-11-15T09:52:19;29.00;;;22.60;;
1376;SDS011;682;52.502;13.488;2022-11-15T09:54:50;28.97;;;22.73;;
1376;SDS011;682;52.502;13.488;2022-11-15T09:57:18;30.17;;;24.67;;
1376;SDS011;682;52.502;13.488;2022-11-15T10:02:50;29.80;;;22.17;;
1376;SDS011;682;52.502;13.488;2022-11-15T10:05:29;31.73;;;24.20;;
1376;SDS011;682;52.502;13.488;2022-11-15T10:08:12;26.77;;;20.67;;
1376;SDS011;682;52.502;13.488;2022-11-15T10:10:50;38.67;;;30.67;;
1376;SDS011;682;52.502;13.488;2022-11-15T10:13:22;23.80;;;20.20;;
1376;SDS011;682;52.502;13.488;2022-11-15T10:15:59;25.00;;;19.87;;
1376;SDS011;682;52.502;13.488;2022-11-15T10:18:38;25.27;;;20.23;;
1376;SDS011;682;52.502;13.488;2022-11-15T10:21:17;25.30;;;19.67;;
1376;SDS011;682;52.502;13.488;2022-11-15T10:23:51;24.63;;;19.77;;
1376;SDS011;682;52.502;13.488;2022-11-15T10:26:19;23.03;;;18.50;;
1376;SDS011;682;52.502;13.488;2022-11-15T10:28:51;26.30;;;19.47;;
1376;SDS011;682;52.502;13.488;2022-11-15T10:31:23;25.10;;;18.60;;
1376;SDS011;682;52.502;13.488;2022-11-15T10:33:57;22.20;;;17.70;;
1376;SDS011;682;52.502;13.488;2022-11-15T10:36:45;23.67;;;19.07;;
1376;SDS011;682;52.502;13.488;2022-11-15T10:39:20;23.57;;;17.20;;
1376;SDS011;682;52.502;13.488;2022-11-15T10:41:49;22.40;;;16.47;;
1376;SDS011;682;52.502;13.488;2022-11-15T10:44:33;23.50;;;18.23;;
1376;SDS011;682;52.502;13.488;2022-11-15T10:47:32;21.70;;;17.87;;
1376;SDS011;682;52.502;13.488;2022-11-15T10:50:01;22.70;;;17.07;;
1376;SDS011;682;52.502;13.488;2022-11-15T10:52:34;27.33;;;20.53;;
1376;SDS011;682;52.502;13.488;2022-11-15T10:55:05;20.43;;;16.10;;
1376;SDS011;682;52.502;13.488;2022-11-15T10:57:51;19.40;;;14.60;;
1376;SDS011;682;52.502;13.488;2022-11-15T11:00:28;22.90;;;16.47;;
1376;SDS011;682;52.502;13.488;2022-11-15T11:03:03;20.47;;;15.30;;
1376;SDS011;682;52.502;13.488;2022-11-15T11:05:33;21.50;;;14.97;;
1376;SDS011;682;52.502;13.488;2022-11-15T11:08:18;19.63;;;16.50;;
1376;SDS011;682;52.502;13.488;2022-11-15T11:10:51;21.50;;;14.90;;
1376;SDS011;682;52.502;13.488;2022-11-15T11:13:27;23.57;;;17.70;;
1376;SDS011;682;52.502;13.488;2022-11-15T11:15:57;22.07;;;16.87;;
1376;SDS011;682;52.502;13.488;2022-11-15T11:18:42;26.60;;;18.07;;
1376;SDS011;682;52.502;13.488;2022-11-15T11:21:13;18.47;;;14.73;;
1376;SDS011;682;52.502;13.488;2022-11-15T11:24:04;21.33;;;17.17;;
1376;SDS011;682;52.502;13.488;2022-11-15T11:26:41;18.40;;;15.97;;
1376;SDS011;682;52.502;13.488;2022-11-15T11:29:22;17.83;;;15.63;;
1376;SDS011;682;52.502;13.488;2022-11-15T11:32:02;20.43;;;16.60;;
1376;SDS011;682;52.502;13.488;2022-11-15T11:34:53;23.00;;;17.47;;
1376;SDS011;682;52.502;13.488;2022-11-15T11:37:35;17.77;;;15.90;;
1376;SDS011;682;52.502;13.488;2022-11-15T11:40:14;18.30;;;14.93;;
1376;SDS011;682;52.502;13.488;2022-11-15T11:42:54;21.17;;;17.17;;
1376;SDS011;682;52.502;13.488;2022-11-15T11:45:42;17.13;;;15.33;;
1376;SDS011;682;52.502;13.488;2022-11-15T11:48:28;19.00;;;15.63;;
1376;SDS011;682;52.502;13.488;2022-11-15T11:51:10;20.20;;;16.27;;
1376;SDS011;682;52.502;13.488;2022-11-15T11:53:47;19.07;;;15.87;;
1376;SDS011;682;52.502;13.488;2022-11-15T11:56:26;25.70;;;15.60;;
1376;SDS011;682;52.502;13.488;2022-11-15T11:59:00;22.20;;;17.23;;
1376;SDS011;682;52.502;13.488;2022-11-15T12:01:33;18.07;;;16.17;;
1376;SDS011;682;52.502;13.488;2022-11-15T12:04:11;18.50;;;16.63;;
1376;SDS011;682;52.502;13.488;2022-11-15T12:06:47;18.30;;;14.30;;
1376;SDS011;682;52.502;13.488;2022-11-15T12:09:21;17.33;;;15.53;;
1376;SDS011;682;52.502;13.488;2022-11-15T12:11:58;17.10;;;15.40;;
1376;SDS011;682;52.502;13.488;2022-11-15T12:14:38;16.37;;;14.43;;
1376;SDS011;682;52.502;13.488;2022-11-15T12:17:10;16.80;;;15.00;;
1376;SDS011;682;52.502;13.488;2022-11-15T12:19:41;17.23;;;15.40;;
1376;SDS011;682;52.502;13.488;2022-11-15T12:22:12;18.73;;;16.73;;
1376;SDS011;682;52.502;13.488;2022-11-15T12:24:48;18.57;;;16.70;;
1376;SDS011;682;52.502;13.488;2022-11-15T12:27:29;18.87;;;17.03;;
1376;SDS011;682;52.502;13.488;2022-11-15T12:30:08;17.77;;;15.93;;
1376;SDS011;682;52.502;13.488;2022-11-15T12:32:49;16.40;;;14.77;;
1376;SDS011;682;52.502;13.488;2022-11-15T12:35:27;24.23;;;17.00;;
1376;SDS011;682;52.502;13.488;2022-11-15T12:38:10;26.40;;;18.30;;
1376;SDS011;682;52.502;13.488;2022-11-15T12:41:11;20.23;;;17.30;;
1376;SDS011;682;52.502;13.488;2022-11-15T12:43:43;17.80;;;15.87;;
1376;SDS011;682;52.502;13.488;2022-11-15T12:46:22;16.80;;;14.80;;
1376;SDS011;682;52.502;13.488;2022-11-15T12:49:11;28.77;;;25.80;;
1376;SDS011;682;52.502;13.488;2022-11-15T12:52:09;19.77;;;15.80;;
1376;SDS011;682;52.502;13.488;2022-11-15T12:57:32;16.00;;;13.30;;
1376;SDS011;682;52.502;13.488;2022-11-15T13:03:22;15.13;;;12.40;;
1376;SDS011;682;52.502;13.488;2022-11-15T13:06:02;18.90;;;16.90;;
1376;SDS011;682;52.502;13.488;2022-11-15T13:09:00;16.53;;;14.93;;
1376;SDS011;682;52.502;13.488;2022-11-15T13:14:39;24.17;;;19.20;;
1376;SDS011;682;52.502;13.488;2022-11-15T13:17:22;16.13;;;14.13;;
1376;SDS011;682;52.502;13.488;2022-11-15T13:20:02;19.17;;;14.17;;
1376;SDS011;682;52.502;13.488;2022-11-15T13:22:46;17.50;;;13.33;;
1376;SDS011;682;52.502;13.488;2022-11-15T13:25:30;16.10;;;13.67;;
1376;SDS011;682;52.502;13.488;2022-11-15T13:28:24;16.73;;;14.93;;
1376;SDS011;682;52.502;13.488;2022-11-15T13:31:00;19.50;;;15.63;;
1376;SDS011;682;52.502;13.488;2022-11-15T13:33:30;16.70;;;13.10;;
1376;SDS011;682;52.502;13.488;2022-11-15T13:36:00;22.70;;;14.03;;
1376;SDS011;682;52.502;13.488;2022-11-15T13:38:30;19.07;;;14.60;;
1376;SDS011;682;52.502;13.488;2022-11-15T13:41:10;25.80;;;14.97;;
1376;SDS011;682;52.502;13.488;2022-11-15T13:43:49;19.57;;;15.77;;
1376;SDS011;682;52.502;13.488;2022-11-15T13:46:20;16.07;;;14.20;;
1376;SDS011;682;52.502;13.488;2022-11-15T13:48:53;20.07;;;15.50;;
1376;SDS011;682;52.502;13.488;2022-11-15T13:51:31;18.93;;;14.67;;
1376;SDS011;682;52.502;13.488;2022-11-15T13:54:09;21.93;;;15.87;;
1376;SDS011;682;52.502;13.488;2022-11-15T13:56:49;17.27;;;13.20;;
1376;SDS011;682;52.502;13.488;2022-11-15T13:59:25;20.57;;;15.17;;
1376;SDS011;682;52.502;13.488;2022-11-15T14:01:55;19.13;;;15.17;;
1376;SDS011;682;52.502;13.488;2022-11-15T14:04:29;21.70;;;16.30;;
1376;SDS011;682;52.502;13.488;2022-11-15T14:07:01;33.37;;;29.43;;
1376;SDS011;682;52.502;13.488;2022-11-15T14:09:30;20.67;;;15.30;;
1376;SDS011;682;52.502;13.488;2022-11-15T14:12:22;19.70;;;15.50;;
1376;SDS011;682;52.502;13.488;2022-11-15T14:14:55;23.07;;;15.73;;
1376;SDS011;682;52.502;13.488;2022-11-15T14:17:51;19.80;;;15.77;;
1376;SDS011;682;52.502;13.488;2022-11-15T14:20:28;17.57;;;15.63;;
1376;SDS011;682;52.502;13.488;2022-11-15T14:23:00;18.20;;;14.83;;
1376;SDS011;682;52.502;13.488;2022-11-15T14:25:28;21.60;;;15.27;;
1376;SDS011;682;52.502;13.488;2022-11-15T14:28:10;19.23;;;15.90;;
1376;SDS011;682;52.502;13.488;2022-11-15T14:30:44;21.27;;;15.87;;
1376;SDS011;682;52.502;13.488;2022-11-15T14:33:18;20.40;;;15.53;;
1376;SDS011;682;52.502;13.488;2022-11-15T14:35:49;19.10;;;16.07;;
1376;SDS011;682;52.502;13.488;2022-11-15T14:38:16;23.80;;;21.23;;
1376;SDS011;682;52.502;13.488;2022-11-15T14:40:43;22.47;;;16.53;;
1376;SDS011;682;52.502;13.488;2022-11-15T14:43:11;21.13;;;18.03;;
1376;SDS011;682;52.502;13.488;2022-11-15T14:45:40;24.53;;;16.70;;
1376;SDS011;682;52.502;13.488;2022-11-15T14:48:09;23.63;;;17.63;;
1376;SDS011;682;52.502;13.488;2022-11-15T14:50:40;25.47;;;18.30;;
1376;SDS011;682;52.502;13.488;2022-11-15T14:53:10;23.27;;;17.43;;
1376;SDS011;682;52.502;13.488;2022-11-15T14:55:40;26.20;;;17.90;;
1376;SDS011;682;52.502;13.488;2022-11-15T14:58:08;22.80;;;17.57;;
1376;SDS011;682;52.502;13.488;2022-11-15T15:00:40;23.60;;;18.10;;
1376;SDS011;682;52.502;13.488;2022-11-15T15:03:14;23.00;;;17.43;;
1376;SDS011;682;52.502;13.488;2022-11-15T15:05:56;23.03;;;17.00;;
1376;SDS011;682;52.502;13.488;2022-11-15T15:08:23;25.77;;;18.50;;
1376;SDS011;682;52.502;13.488;2022-11-15T15:10:55;26.63;;;19.00;;
1376;SDS011;682;52.502;13.488;2022-11-15T15:13:23;22.57;;;18.33;;
1376;SDS011;682;52.502;13.488;2022-11-15T15:15:59;26.57;;;21.27;;
1376;SDS011;682;52.502;13.488;2022-11-15T15:18:31;22.43;;;18.27;;
1376;SDS011;682;52.502;13.488;2022-11-15T15:21:01;25.93;;;19.20;;
1376;SDS011;682;52.502;13.488;2022-11-15T15:23:32;24.13;;;18.70;;
1376;SDS011;682;52.502;13.488;2022-11-15T15:26:00;24.70;;;19.60;;
1376;SDS011;682;52.502;13.488;2022-11-15T15:28:30;24.70;;;17.83;;
1376;SDS011;682;52.502;13.488;2022-11-15T15:31:00;25.23;;;19.13;;
1376;SDS011;682;52.502;13.488;2022-11-15T15:33:31;22.30;;;17.97;;
1376;SDS011;682;52.502;13.488;2022-11-15T15:35:59;25.40;;;18.20;;
1376;SDS011;682;52.502;13.488;2022-11-15T15:38:27;23.57;;;18.10;;
1376;SDS011;682;52.502;13.488;2022-11-15T15:40:59;28.50;;;20.43;;
1376;SDS011;682;52.502;13.488;2022-11-15T15:43:27;23.83;;;19.23;;